Aérodrome :
LOGIN :

S'inscrire | Disclaimer

   EN    FR    IT 

 










Légende :    VFR   VFR Marginal   IFR   IFR Intensif   IFR Très Intensif
Visi : 
Plafond : 
>= 8 km
>= 3000ft
5 à 8 km
1000 à 3000 ft
1500m à 5 km
500 à 1000 ft
800 à 1500m
200 à 500 ft
< 800m
< 200 ft
Symboles :   Orages  Brouillard  Fortes neiges  Fortes précipitations  Vent > 20 kt
SIGMETs :   Divers  Orages  Givrage  Turbulence  Onde Orograph.  Cendres Volcan.







- Altitude de l'aérodrome : 19 ft
- Code IATA : SMI


LGSM - Aristarchos of Samos

DERNIER METAR :
  • 181750Z 17013KT 9999 FEW014 SCT025 18/15 Q1013

METARs EXPIRÉS :
  • 181720Z 16014KT 9999 FEW014 BKN025 18/15 Q1013
  • 181650Z 15017KT 9999 FEW014 BKN025 18/15 Q1013
  • 181620Z 16014KT 9999 FEW014 BKN025 18/15 Q1013
  • 181550Z 16011KT 9999 FEW014 BKN025 18/15 Q1013
  • 181520Z 15015KT 9999 FEW014 BKN025 18/15 Q1012

TAF TAF LGSM
Valide du 18 à 18h jusqu'au 19 à 03h UTC


181700Z 1818/1903 16016KT 9999 SCT014 BKN025
PROB40
TEMPO 1818/1903 5000 RA
PROB30
TEMPO 1818/1821 3000 TSRA SCT010 FEW018CB BKN020 OVC060
Pas de NOTAMs connus pour ce terrain.
1 SIGMET publié pour la FIR Athinai (LGGG) :
 
Orages noyés dans la masse
LGGG SIGMET 12 VALID 181430/181830 LGAT
LGGG ATHINAI FIR/UIR EMBD TS OBS S OF N3900 MNLY OVER MAR MOV NE INTSF=



MET'MAP, la Météo Aéronautique d'un coup d'oeil ! - Copyright ORBIFLY Décembre 2007 - Disclaimer

ORBIFLY MET'MAP TEAM :

Programmation & Développement : Alexandra Zaïnal
Conception & Développement : Baudouin d'Aumeries
Co-Programmation & Développement : Marc-Olivier Méhu
Soutien technique & logistique : Manuel Goepfert

Contact : metmap@orbifly.com




SOURCES & CREDITS :

   NOAA